Terminal Aerodrome Forecast
Issued by NWS Cleveland, OH

Home | Current Version | Previous Version | Text Only | Print | Product List | Glossary Off
Versions: 1 2 3 4 5 6 7 8 9 10 11 12 13 14 15 16 17 18 19 20 21 22 23 24 25 26 27

582
FTUS41 KCLE 290801 AAA
TAFTOL
TAF AMD
KTOL 290801Z 2908/3006 05008KT P6SM SCT025 OVC050
      TEMPO 2908/2912 4SM BR BKN025 OVC050
     FM291200 04008KT 5SM BR VCSH SCT006 OVC015
     FM291900 06012G20KT 4SM -RA BR OVC006=

USA.gov is the U.S. government's official web portal to all federal, state and local government web resources and services.